sensor_id;sensor_type;location;lat;lon;timestamp;pressure;altitude;pressure_sealevel;temperature;humidity
19259;BME280;9763;48.780;9.212;2023-02-04T00:02:49;99610.19;;;11.18;70.51
19259;BME280;9763;48.780;9.212;2023-02-04T00:06:14;99598.94;;;11.16;71.16
19259;BME280;9763;48.780;9.212;2023-02-04T00:09:38;99586.88;;;11.14;70.80
19259;BME280;9763;48.780;9.212;2023-02-04T00:13:03;99587.84;;;11.11;71.21
19259;BME280;9763;48.780;9.212;2023-02-04T00:16:28;99602.84;;;11.08;71.12
19259;BME280;9763;48.780;9.212;2023-02-04T00:19:53;99602.84;;;11.08;71.47
19259;BME280;9763;48.780;9.212;2023-02-04T00:23:17;99604.63;;;11.07;70.94
19259;BME280;9763;48.780;9.212;2023-02-04T00:26:41;99596.06;;;11.04;71.66
19259;BME280;9763;48.780;9.212;2023-02-04T00:30:07;99594.31;;;11.04;71.63
19259;BME280;9763;48.780;9.212;2023-02-04T00:33:31;99598.47;;;11.08;70.92
19259;BME280;9763;48.780;9.212;2023-02-04T00:36:57;99606.31;;;11.08;71.04
19259;BME280;9763;48.780;9.212;2023-02-04T00:40:21;99610.69;;;11.08;71.54
19259;BME280;9763;48.780;9.212;2023-02-04T00:43:45;99621.16;;;11.08;71.40
19259;BME280;9763;48.780;9.212;2023-02-04T00:47:09;99611.53;;;11.08;71.38
19259;BME280;9763;48.780;9.212;2023-02-04T00:50:33;99623.69;;;11.09;71.35
19259;BME280;9763;48.780;9.212;2023-02-04T00:54:02;99613.59;;;11.02;71.40
19259;BME280;9763;48.780;9.212;2023-02-04T00:57:26;99632.38;;;11.10;70.90
19259;BME280;9763;48.780;9.212;2023-02-04T01:00:51;99631.72;;;11.05;71.34
19259;BME280;9763;48.780;9.212;2023-02-04T01:04:16;99634.66;;;10.99;71.98
19259;BME280;9763;48.780;9.212;2023-02-04T01:07:40;99634.06;;;10.92;71.79
19259;BME280;9763;48.780;9.212;2023-02-04T01:11:06;99644.59;;;10.91;72.06
19259;BME280;9763;48.780;9.212;2023-02-04T01:14:31;99651.56;;;10.90;71.64
19259;BME280;9763;48.780;9.212;2023-02-04T01:17:56;99642.88;;;10.90;71.74
19259;BME280;9763;48.780;9.212;2023-02-04T01:21:20;99635.97;;;10.89;72.35
19259;BME280;9763;48.780;9.212;2023-02-04T01:24:44;99629.22;;;10.85;71.97
19259;BME280;9763;48.780;9.212;2023-02-04T01:28:29;99647.75;;;10.78;72.09
19259;BME280;9763;48.780;9.212;2023-02-04T01:31:53;99643.63;;;10.74;72.50
19259;BME280;9763;48.780;9.212;2023-02-04T01:35:18;99653.41;;;10.69;72.96
19259;BME280;9763;48.780;9.212;2023-02-04T01:38:42;99659.47;;;10.70;73.11
19259;BME280;9763;48.780;9.212;2023-02-04T01:42:06;99654.97;;;10.73;72.45
19259;BME280;9763;48.780;9.212;2023-02-04T01:45:31;99665.44;;;10.73;72.26
19259;BME280;9763;48.780;9.212;2023-02-04T01:48:57;99663.72;;;10.72;72.69
19259;BME280;9763;48.780;9.212;2023-02-04T01:52:21;99670.72;;;10.72;72.48
19259;BME280;9763;48.780;9.212;2023-02-04T01:55:46;99654.25;;;10.70;72.45
19259;BME280;9763;48.780;9.212;2023-02-04T01:59:12;99659.41;;;10.71;71.87
19259;BME280;9763;48.780;9.212;2023-02-04T02:02:40;99669.00;;;10.71;71.92
19259;BME280;9763;48.780;9.212;2023-02-04T02:06:06;99670.78;;;10.70;71.81
19259;BME280;9763;48.780;9.212;2023-02-04T02:09:32;99685.59;;;10.70;71.89
19259;BME280;9763;48.780;9.212;2023-02-04T02:13:00;99682.97;;;10.70;71.21
19259;BME280;9763;48.780;9.212;2023-02-04T02:16:24;99688.22;;;10.70;71.44
19259;BME280;9763;48.780;9.212;2023-02-04T02:19:49;99693.56;;;10.67;70.81
19259;BME280;9763;48.780;9.212;2023-02-04T02:23:20;99691.06;;;10.64;71.56
19259;BME280;9763;48.780;9.212;2023-02-04T02:26:47;99700.47;;;10.68;71.60
19259;BME280;9763;48.780;9.212;2023-02-04T02:30:13;99719.59;;;10.68;71.38
19259;BME280;9763;48.780;9.212;2023-02-04T02:33:39;99716.22;;;10.66;71.34
19259;BME280;9763;48.780;9.212;2023-02-04T02:37:04;99727.56;;;10.65;71.04
19259;BME280;9763;48.780;9.212;2023-02-04T02:40:30;99726.78;;;10.63;70.76
19259;BME280;9763;48.780;9.212;2023-02-04T02:43:57;99725.19;;;10.61;70.76
19259;BME280;9763;48.780;9.212;2023-02-04T02:47:22;99710.47;;;10.58;71.07
19259;BME280;9763;48.780;9.212;2023-02-04T02:50:46;99724.50;;;10.56;70.59
19259;BME280;9763;48.780;9.212;2023-02-04T02:54:18;99715.91;;;10.54;70.81
19259;BME280;9763;48.780;9.212;2023-02-04T02:57:45;99717.81;;;10.50;71.04
19259;BME280;9763;48.780;9.212;2023-02-04T03:01:12;99726.63;;;10.48;71.07
19259;BME280;9763;48.780;9.212;2023-02-04T03:04:41;99737.19;;;10.44;71.24
19259;BME280;9763;48.780;9.212;2023-02-04T03:08:10;99745.28;;;10.38;70.47
19259;BME280;9763;48.780;9.212;2023-02-04T03:11:36;99750.41;;;10.40;71.16
19259;BME280;9763;48.780;9.212;2023-02-04T03:15:00;99758.41;;;10.37;71.06
19259;BME280;9763;48.780;9.212;2023-02-04T03:18:26;99768.91;;;10.35;70.84
19259;BME280;9763;48.780;9.212;2023-02-04T03:21:50;99764.59;;;10.34;71.01
19259;BME280;9763;48.780;9.212;2023-02-04T03:25:14;99755.97;;;10.32;70.83
19259;BME280;9763;48.780;9.212;2023-02-04T03:28:39;99771.63;;;10.32;71.45
19259;BME280;9763;48.780;9.212;2023-02-04T03:32:04;99763.00;;;10.30;71.22
19259;BME280;9763;48.780;9.212;2023-02-04T03:35:29;99775.16;;;10.31;70.85
19259;BME280;9763;48.780;9.212;2023-02-04T03:38:52;99775.34;;;10.27;71.40
19259;BME280;9763;48.780;9.212;2023-02-04T03:42:16;99774.50;;;10.26;70.96
19259;BME280;9763;48.780;9.212;2023-02-04T03:45:40;99782.47;;;10.23;71.47
19259;BME280;9763;48.780;9.212;2023-02-04T03:49:07;99790.16;;;10.26;71.57
19259;BME280;9763;48.780;9.212;2023-02-04T03:52:32;99798.81;;;10.27;71.49
19259;BME280;9763;48.780;9.212;2023-02-04T03:55:56;99797.22;;;10.24;71.08
19259;BME280;9763;48.780;9.212;2023-02-04T03:59:19;99798.22;;;10.20;71.19
19259;BME280;9763;48.780;9.212;2023-02-04T04:02:43;99815.59;;;10.21;71.62
19259;BME280;9763;48.780;9.212;2023-02-04T04:06:07;99817.34;;;10.21;71.42
19259;BME280;9763;48.780;9.212;2023-02-04T04:09:33;99813.94;;;10.19;71.23
19259;BME280;9763;48.780;9.212;2023-02-04T04:12:56;99820.09;;;10.16;71.15
19259;BME280;9763;48.780;9.212;2023-02-04T04:16:20;99824.47;;;10.16;71.63
19259;BME280;9763;48.780;9.212;2023-02-04T04:19:44;99827.97;;;10.15;71.90
19259;BME280;9763;48.780;9.212;2023-02-04T04:23:07;99829.69;;;10.16;71.79
19259;BME280;9763;48.780;9.212;2023-02-04T04:26:33;99843.56;;;10.16;71.56
19259;BME280;9763;48.780;9.212;2023-02-04T04:29:57;99844.44;;;10.17;71.84
19259;BME280;9763;48.780;9.212;2023-02-04T04:33:20;99839.22;;;10.17;71.85
19259;BME280;9763;48.780;9.212;2023-02-04T04:36:44;99830.75;;;10.11;71.79
19259;BME280;9763;48.780;9.212;2023-02-04T04:40:10;99834.06;;;10.15;71.82
19259;BME280;9763;48.780;9.212;2023-02-04T04:43:36;99831.53;;;10.14;71.57
19259;BME280;9763;48.780;9.212;2023-02-04T04:47:01;99843.78;;;10.11;71.95
19259;BME280;9763;48.780;9.212;2023-02-04T04:50:25;99841.22;;;10.10;71.86
19259;BME280;9763;48.780;9.212;2023-02-04T04:53:49;99850.81;;;10.09;71.64
19259;BME280;9763;48.780;9.212;2023-02-04T04:57:13;99843.91;;;10.08;71.79
19259;BME280;9763;48.780;9.212;2023-02-04T05:00:38;99839.75;;;10.03;71.77
19259;BME280;9763;48.780;9.212;2023-02-04T05:04:03;99849.16;;;10.07;72.03
19259;BME280;9763;48.780;9.212;2023-02-04T05:07:26;99850.06;;;10.06;72.13
19259;BME280;9763;48.780;9.212;2023-02-04T05:10:50;99853.59;;;10.05;71.85
19259;BME280;9763;48.780;9.212;2023-02-04T05:14:14;99839.84;;;10.01;71.94
19259;BME280;9763;48.780;9.212;2023-02-04T05:17:39;99848.59;;;10.00;72.06
19259;BME280;9763;48.780;9.212;2023-02-04T05:21:03;99845.13;;;10.00;71.70
19259;BME280;9763;48.780;9.212;2023-02-04T05:24:26;99841.66;;;9.99;71.56
19259;BME280;9763;48.780;9.212;2023-02-04T05:27:50;99848.63;;;9.99;72.12
19259;BME280;9763;48.780;9.212;2023-02-04T05:31:14;99845.28;;;9.95;71.74
19259;BME280;9763;48.780;9.212;2023-02-04T05:34:39;99851.63;;;9.90;72.13
19259;BME280;9763;48.780;9.212;2023-02-04T05:38:03;99865.47;;;9.90;72.16
19259;BME280;9763;48.780;9.212;2023-02-04T05:41:26;99867.31;;;9.88;71.99
19259;BME280;9763;48.780;9.212;2023-02-04T05:44:50;99865.66;;;9.86;72.19
19259;BME280;9763;48.780;9.212;2023-02-04T05:48:14;99870.03;;;9.85;71.69
19259;BME280;9763;48.780;9.212;2023-02-04T05:51:39;99855.34;;;9.83;72.32
19259;BME280;9763;48.780;9.212;2023-02-04T05:55:04;99852.84;;;9.80;71.70
19259;BME280;9763;48.780;9.212;2023-02-04T05:58:28;99850.31;;;9.78;71.72
19259;BME280;9763;48.780;9.212;2023-02-04T06:01:54;99856.50;;;9.75;72.27
19259;BME280;9763;48.780;9.212;2023-02-04T06:05:18;99867.00;;;9.74;71.90
19259;BME280;9763;48.780;9.212;2023-02-04T06:08:43;99874.88;;;9.72;72.19
19259;BME280;9763;48.780;9.212;2023-02-04T06:12:07;99887.09;;;9.70;72.48
19259;BME280;9763;48.780;9.212;2023-02-04T06:15:32;99891.53;;;9.68;72.44
19259;BME280;9763;48.780;9.212;2023-02-04T06:18:55;99899.47;;;9.65;71.96
19259;BME280;9763;48.780;9.212;2023-02-04T06:22:19;99910.81;;;9.64;72.23
19259;BME280;9763;48.780;9.212;2023-02-04T06:25:44;99910.06;;;9.61;72.46
19259;BME280;9763;48.780;9.212;2023-02-04T06:29:11;99907.47;;;9.61;72.15
19259;BME280;9763;48.780;9.212;2023-02-04T06:32:34;99898.44;;;9.46;71.98
19259;BME280;9763;48.780;9.212;2023-02-04T06:35:58;99925.81;;;9.58;71.83
19259;BME280;9763;48.780;9.212;2023-02-04T06:39:21;99921.53;;;9.55;72.52
19259;BME280;9763;48.780;9.212;2023-02-04T06:42:46;99935.44;;;9.56;72.42
19259;BME280;9763;48.780;9.212;2023-02-04T06:46:10;99931.97;;;9.55;71.92
19259;BME280;9763;48.780;9.212;2023-02-04T06:49:35;99937.09;;;9.58;72.06
19259;BME280;9763;48.780;9.212;2023-02-04T06:52:58;99937.09;;;9.58;72.55
19259;BME280;9763;48.780;9.212;2023-02-04T06:56:22;99949.09;;;9.62;72.51
19259;BME280;9763;48.780;9.212;2023-02-04T06:59:47;99956.81;;;9.65;72.50
19259;BME280;9763;48.780;9.212;2023-02-04T07:03:11;99971.44;;;9.69;71.77
19259;BME280;9763;48.780;9.212;2023-02-04T07:06:34;99953.13;;;9.71;72.34
19259;BME280;9763;48.780;9.212;2023-02-04T07:09:58;99965.31;;;9.70;71.75
19259;BME280;9763;48.780;9.212;2023-02-04T07:13:23;99969.56;;;9.73;71.90
19259;BME280;9763;48.780;9.212;2023-02-04T07:16:48;99972.06;;;9.76;72.29
19259;BME280;9763;48.780;9.212;2023-02-04T07:20:12;99956.63;;;9.70;71.63
19259;BME280;9763;48.780;9.212;2023-02-04T07:23:36;99982.50;;;9.76;72.23
19259;BME280;9763;48.780;9.212;2023-02-04T07:26:59;99997.28;;;9.75;71.66
19259;BME280;9763;48.780;9.212;2023-02-04T07:30:23;99980.50;;;9.59;71.97
19259;BME280;9763;48.780;9.212;2023-02-04T07:33:49;100004.13;;;9.78;72.21
19259;BME280;9763;48.780;9.212;2023-02-04T07:37:13;100004.88;;;9.82;72.20
19259;BME280;9763;48.780;9.212;2023-02-04T07:40:36;100012.69;;;9.82;72.09
19259;BME280;9763;48.780;9.212;2023-02-04T07:44:02;100016.91;;;9.86;71.66
19259;BME280;9763;48.780;9.212;2023-02-04T07:47:26;100008.09;;;9.90;71.55
19259;BME280;9763;48.780;9.212;2023-02-04T07:50:51;100019.28;;;9.92;71.73
19259;BME280;9763;48.780;9.212;2023-02-04T07:54:15;100015.75;;;9.93;71.11
19259;BME280;9763;48.780;9.212;2023-02-04T07:57:39;100018.50;;;9.90;71.86
19259;BME280;9763;48.780;9.212;2023-02-04T08:01:03;100034.22;;;9.88;71.47
19259;BME280;9763;48.780;9.212;2023-02-04T08:04:27;100046.22;;;9.92;72.07
19259;BME280;9763;48.780;9.212;2023-02-04T08:07:52;100043.34;;;10.00;71.89
19259;BME280;9763;48.780;9.212;2023-02-04T08:11:16;100043.09;;;10.06;71.42
19259;BME280;9763;48.780;9.212;2023-02-04T08:14:40;100048.22;;;10.09;71.10
19259;BME280;9763;48.780;9.212;2023-02-04T08:18:04;100053.19;;;10.15;71.73
19259;BME280;9763;48.780;9.212;2023-02-04T08:21:28;100048.75;;;10.19;71.00
19259;BME280;9763;48.780;9.212;2023-02-04T08:24:53;100049.25;;;10.28;70.98
19259;BME280;9763;48.780;9.212;2023-02-04T08:28:16;100051.25;;;10.45;71.50
19259;BME280;9763;48.780;9.212;2023-02-04T08:31:40;100073.44;;;10.57;70.82
19259;BME280;9763;48.780;9.212;2023-02-04T08:35:08;100065.13;;;10.69;70.86
19259;BME280;9763;48.780;9.212;2023-02-04T08:38:32;100061.28;;;10.77;70.65
19259;BME280;9763;48.780;9.212;2023-02-04T08:41:58;100067.72;;;10.91;71.32
19259;BME280;9763;48.780;9.212;2023-02-04T08:45:21;100070.22;;;10.94;70.67
19259;BME280;9763;48.780;9.212;2023-02-04T08:48:46;100074.56;;;10.95;70.71
19259;BME280;9763;48.780;9.212;2023-02-04T08:52:10;100084.09;;;10.96;70.76
19259;BME280;9763;48.780;9.212;2023-02-04T08:55:34;100081.47;;;10.96;71.00
19259;BME280;9763;48.780;9.212;2023-02-04T08:58:59;100083.28;;;10.94;70.58
19259;BME280;9763;48.780;9.212;2023-02-04T09:02:26;100088.53;;;10.94;70.79
19259;BME280;9763;48.780;9.212;2023-02-04T09:05:50;100100.41;;;11.01;70.77
19259;BME280;9763;48.780;9.212;2023-02-04T09:09:14;100101.63;;;11.14;70.95
19259;BME280;9763;48.780;9.212;2023-02-04T09:12:38;100097.56;;;11.29;70.43
19259;BME280;9763;48.780;9.212;2023-02-04T09:16:05;100104.03;;;11.40;70.71
19259;BME280;9763;48.780;9.212;2023-02-04T09:19:29;100104.78;;;11.44;70.02
19259;BME280;9763;48.780;9.212;2023-02-04T09:22:54;100109.88;;;11.47;70.25
19259;BME280;9763;48.780;9.212;2023-02-04T09:26:18;100114.97;;;11.50;69.77
19259;BME280;9763;48.780;9.212;2023-02-04T09:29:42;100118.44;;;11.50;70.01
19259;BME280;9763;48.780;9.212;2023-02-04T09:33:10;100123.72;;;11.49;70.04
19259;BME280;9763;48.780;9.212;2023-02-04T09:36:34;100133.34;;;11.48;70.03
19259;BME280;9763;48.780;9.212;2023-02-04T09:40:00;100135.19;;;11.67;69.63
19259;BME280;9763;48.780;9.212;2023-02-04T09:43:26;100130.28;;;11.81;70.02
19259;BME280;9763;48.780;9.212;2023-02-04T09:46:54;100145.78;;;12.06;70.15
19259;BME280;9763;48.780;9.212;2023-02-04T09:50:22;100145.47;;;12.32;69.70
19259;BME280;9763;48.780;9.212;2023-02-04T09:53:48;100156.84;;;12.51;69.56
19259;BME280;9763;48.780;9.212;2023-02-04T09:57:17;100150.44;;;12.77;69.76
19259;BME280;9763;48.780;9.212;2023-02-04T10:00:42;100152.59;;;13.05;69.16
19259;BME280;9763;48.780;9.212;2023-02-04T10:04:11;100143.78;;;13.26;68.88
19259;BME280;9763;48.780;9.212;2023-02-04T10:07:37;100150.72;;;13.45;68.90
19259;BME280;9763;48.780;9.212;2023-02-04T10:11:01;100136.31;;;13.53;68.49
19259;BME280;9763;48.780;9.212;2023-02-04T10:14:25;100140.94;;;13.65;68.41
19259;BME280;9763;48.780;9.212;2023-02-04T10:17:53;100135.41;;;13.72;68.36
19259;BME280;9763;48.780;9.212;2023-02-04T10:21:20;100142.44;;;13.71;67.73
19259;BME280;9763;48.780;9.212;2023-02-04T10:24:46;100143.88;;;13.59;67.61
19259;BME280;9763;48.780;9.212;2023-02-04T10:28:10;100145.47;;;13.45;67.63
19259;BME280;9763;48.780;9.212;2023-02-04T10:31:36;100137.28;;;13.33;67.67
19259;BME280;9763;48.780;9.212;2023-02-04T10:35:02;100130.81;;;13.23;67.84
19259;BME280;9763;48.780;9.212;2023-02-04T10:38:26;100133.78;;;13.16;68.02
19259;BME280;9763;48.780;9.212;2023-02-04T10:41:53;100137.25;;;13.16;67.46
19259;BME280;9763;48.780;9.212;2023-02-04T10:45:24;100125.31;;;13.09;67.45
19259;BME280;9763;48.780;9.212;2023-02-04T10:48:48;100129.38;;;13.16;67.83
19259;BME280;9763;48.780;9.212;2023-02-04T10:52:15;100131.06;;;13.17;67.16
19259;BME280;9763;48.780;9.212;2023-02-04T10:55:40;100128.63;;;13.14;67.81
19259;BME280;9763;48.780;9.212;2023-02-04T10:59:19;100125.94;;;13.16;67.71
19259;BME280;9763;48.780;9.212;2023-02-04T11:02:56;100132.09;;;13.15;67.13
19259;BME280;9763;48.780;9.212;2023-02-04T11:06:23;100132.50;;;13.24;67.90
19259;BME280;9763;48.780;9.212;2023-02-04T11:09:47;100134.22;;;13.77;67.99
19259;BME280;9763;48.780;9.212;2023-02-04T11:13:22;100123.06;;;14.41;67.88
19259;BME280;9763;48.780;9.212;2023-02-04T11:16:51;100130.16;;;15.80;68.84
19259;BME280;9763;48.780;9.212;2023-02-04T11:20:31;100135.31;;;16.69;66.36
19259;BME280;9763;48.780;9.212;2023-02-04T11:24:19;100131.63;;;16.43;64.97
19259;BME280;9763;48.780;9.212;2023-02-04T11:27:44;100135.19;;;16.13;65.00
19259;BME280;9763;48.780;9.212;2023-02-04T11:31:22;100124.03;;;15.80;65.45
19259;BME280;9763;48.780;9.212;2023-02-04T11:34:49;100130.97;;;15.51;65.66
19259;BME280;9763;48.780;9.212;2023-02-04T11:38:26;100120.28;;;15.38;64.94
19259;BME280;9763;48.780;9.212;2023-02-04T11:41:50;100126.41;;;15.23;65.07
19259;BME280;9763;48.780;9.212;2023-02-04T11:45:17;100130.19;;;15.03;64.90
19259;BME280;9763;48.780;9.212;2023-02-04T11:48:43;100122.72;;;14.80;65.35
19259;BME280;9763;48.780;9.212;2023-02-04T11:52:13;100134.03;;;14.65;65.39
19259;BME280;9763;48.780;9.212;2023-02-04T11:55:44;100137.41;;;14.51;65.60
19259;BME280;9763;48.780;9.212;2023-02-04T11:59:11;100139.69;;;14.41;65.44
19259;BME280;9763;48.780;9.212;2023-02-04T12:02:43;100133.03;;;14.34;65.29
19259;BME280;9763;48.780;9.212;2023-02-04T12:06:07;100128.00;;;14.30;64.64
19259;BME280;9763;48.780;9.212;2023-02-04T12:09:32;100135.47;;;14.37;64.70
19259;BME280;9763;48.780;9.212;2023-02-04T12:12:56;100136.81;;;14.46;65.28
19259;BME280;9763;48.780;9.212;2023-02-04T12:16:21;100135.91;;;14.47;64.63
19259;BME280;9763;48.780;9.212;2023-02-04T12:19:45;100142.50;;;14.37;64.83
19259;BME280;9763;48.780;9.212;2023-02-04T12:23:09;100136.91;;;14.27;64.86
19259;BME280;9763;48.780;9.212;2023-02-04T12:26:35;100138.09;;;14.37;65.21
19259;BME280;9763;48.780;9.212;2023-02-04T12:29:59;100144.44;;;14.51;65.07
19259;BME280;9763;48.780;9.212;2023-02-04T12:33:22;100143.97;;;14.60;64.76
19259;BME280;9763;48.780;9.212;2023-02-04T12:36:46;100139.72;;;14.57;64.56
19259;BME280;9763;48.780;9.212;2023-02-04T12:40:13;100140.38;;;14.45;64.26
19259;BME280;9763;48.780;9.212;2023-02-04T12:43:39;100134.97;;;14.31;63.90
19259;BME280;9763;48.780;9.212;2023-02-04T12:47:03;100149.44;;;14.05;64.35
19259;BME280;9763;48.780;9.212;2023-02-04T12:50:27;100148.00;;;13.82;64.70
19259;BME280;9763;48.780;9.212;2023-02-04T12:53:51;100141.06;;;13.64;64.22
19259;BME280;9763;48.780;9.212;2023-02-04T12:57:15;100142.72;;;13.48;64.22
19259;BME280;9763;48.780;9.212;2023-02-04T13:00:42;100146.84;;;13.34;64.99
19259;BME280;9763;48.780;9.212;2023-02-04T13:04:07;100143.59;;;13.29;64.44
19259;BME280;9763;48.780;9.212;2023-02-04T13:07:31;100148.94;;;13.28;64.98
19259;BME280;9763;48.780;9.212;2023-02-04T13:10:55;100147.31;;;13.25;64.70
19259;BME280;9763;48.780;9.212;2023-02-04T13:14:19;100148.50;;;13.18;64.63
19259;BME280;9763;48.780;9.212;2023-02-04T13:17:44;100149.78;;;13.10;64.64
19259;BME280;9763;48.780;9.212;2023-02-04T13:21:08;100149.78;;;13.10;65.25
19259;BME280;9763;48.780;9.212;2023-02-04T13:24:35;100146.06;;;13.15;65.00
19259;BME280;9763;48.780;9.212;2023-02-04T13:27:59;100159.00;;;13.18;64.94
19259;BME280;9763;48.780;9.212;2023-02-04T13:31:22;100149.22;;;13.22;64.97
19259;BME280;9763;48.780;9.212;2023-02-04T13:34:47;100153.47;;;13.24;65.01
19259;BME280;9763;48.780;9.212;2023-02-04T13:38:11;100159.72;;;13.22;65.06
19259;BME280;9763;48.780;9.212;2023-02-04T13:41:35;100165.16;;;13.17;64.41
19259;BME280;9763;48.780;9.212;2023-02-04T13:44:59;100156.38;;;13.18;64.59
19259;BME280;9763;48.780;9.212;2023-02-04T13:48:23;100162.97;;;13.27;64.45
19259;BME280;9763;48.780;9.212;2023-02-04T13:51:49;100164.28;;;13.36;64.24
19259;BME280;9763;48.780;9.212;2023-02-04T13:55:13;100163.66;;;13.30;64.61
19259;BME280;9763;48.780;9.212;2023-02-04T13:58:36;100180.59;;;13.05;64.44
19259;BME280;9763;48.780;9.212;2023-02-04T14:02:05;100183.84;;;12.72;63.96
19259;BME280;9763;48.780;9.212;2023-02-04T14:05:28;100182.25;;;12.49;64.75
19259;BME280;9763;48.780;9.212;2023-02-04T14:08:53;100189.66;;;12.40;64.25
19259;BME280;9763;48.780;9.212;2023-02-04T14:12:17;100178.75;;;12.30;64.37
19259;BME280;9763;48.780;9.212;2023-02-04T14:15:41;100184.25;;;12.24;64.33
19259;BME280;9763;48.780;9.212;2023-02-04T14:19:05;100182.09;;;12.13;64.97
19259;BME280;9763;48.780;9.212;2023-02-04T14:22:29;100175.59;;;12.02;64.62
19259;BME280;9763;48.780;9.212;2023-02-04T14:25:54;100180.44;;;11.90;65.03
19259;BME280;9763;48.780;9.212;2023-02-04T14:29:18;100178.28;;;11.80;64.79
19259;BME280;9763;48.780;9.212;2023-02-04T14:32:41;100185.53;;;11.72;65.25
19259;BME280;9763;48.780;9.212;2023-02-04T14:36:06;100189.28;;;11.66;65.28
19259;BME280;9763;48.780;9.212;2023-02-04T14:39:33;100190.56;;;11.56;65.01
19259;BME280;9763;48.780;9.212;2023-02-04T14:42:58;100197.13;;;11.44;64.98
19259;BME280;9763;48.780;9.212;2023-02-04T14:46:22;100196.66;;;11.35;64.67
19259;BME280;9763;48.780;9.212;2023-02-04T14:49:46;100202.00;;;11.32;65.28
19259;BME280;9763;48.780;9.212;2023-02-04T14:53:09;100198.34;;;11.36;65.47
19259;BME280;9763;48.780;9.212;2023-02-04T14:56:33;100207.66;;;11.43;65.37
19259;BME280;9763;48.780;9.212;2023-02-04T14:59:58;100206.69;;;11.45;64.77
19259;BME280;9763;48.780;9.212;2023-02-04T15:03:22;100205.84;;;11.45;65.32
19259;BME280;9763;48.780;9.212;2023-02-04T15:06:45;100203.34;;;11.42;65.27
19259;BME280;9763;48.780;9.212;2023-02-04T15:10:10;100216.47;;;11.40;65.35
19259;BME280;9763;48.780;9.212;2023-02-04T15:13:36;100217.31;;;11.41;65.38
19259;BME280;9763;48.780;9.212;2023-02-04T15:17:01;100206.91;;;11.39;65.54
19259;BME280;9763;48.780;9.212;2023-02-04T15:20:25;100202.78;;;11.34;65.17
19259;BME280;9763;48.780;9.212;2023-02-04T15:23:49;100205.75;;;11.25;64.57
19259;BME280;9763;48.780;9.212;2023-02-04T15:27:12;100214.75;;;11.17;65.20
19259;BME280;9763;48.780;9.212;2023-02-04T15:30:36;100205.38;;;11.12;64.66
19259;BME280;9763;48.780;9.212;2023-02-04T15:34:02;100205.56;;;11.07;64.61
19259;BME280;9763;48.780;9.212;2023-02-04T15:37:27;100212.69;;;11.02;65.01
19259;BME280;9763;48.780;9.212;2023-02-04T15:40:51;100214.72;;;10.96;64.73
19259;BME280;9763;48.780;9.212;2023-02-04T15:44:15;100215.13;;;10.85;65.03
19259;BME280;9763;48.780;9.212;2023-02-04T15:47:38;100219.75;;;10.77;64.84
19259;BME280;9763;48.780;9.212;2023-02-04T15:51:04;100229.63;;;10.69;64.90
19259;BME280;9763;48.780;9.212;2023-02-04T15:54:28;100220.19;;;10.65;64.60
19259;BME280;9763;48.780;9.212;2023-02-04T15:57:53;100223.91;;;10.59;64.47
19259;BME280;9763;48.780;9.212;2023-02-04T16:01:17;100227.41;;;10.58;65.02
19259;BME280;9763;48.780;9.212;2023-02-04T16:04:41;100232.44;;;10.63;64.92
19259;BME280;9763;48.780;9.212;2023-02-04T16:08:07;100247.91;;;10.69;64.41
19259;BME280;9763;48.780;9.212;2023-02-04T16:11:31;100234.69;;;10.73;64.72
19259;BME280;9763;48.780;9.212;2023-02-04T16:14:57;100244.06;;;10.79;64.13
19259;BME280;9763;48.780;9.212;2023-02-04T16:18:21;100249.22;;;10.80;64.71
19259;BME280;9763;48.780;9.212;2023-02-04T16:21:48;100242.19;;;10.82;64.25
19259;BME280;9763;48.780;9.212;2023-02-04T16:25:13;100247.38;;;10.84;64.41
19259;BME280;9763;48.780;9.212;2023-02-04T16:28:37;100251.72;;;10.83;64.26
19259;BME280;9763;48.780;9.212;2023-02-04T16:32:01;100260.53;;;10.81;64.15
19259;BME280;9763;48.780;9.212;2023-02-04T16:35:29;100270.13;;;10.80;63.89
19259;BME280;9763;48.780;9.212;2023-02-04T16:38:55;100276.31;;;10.78;64.69
19259;BME280;9763;48.780;9.212;2023-02-04T16:42:22;100274.72;;;10.74;64.45
19259;BME280;9763;48.780;9.212;2023-02-04T16:45:45;100278.44;;;10.67;63.98
19259;BME280;9763;48.780;9.212;2023-02-04T16:49:09;100278.78;;;10.58;64.05
19259;BME280;9763;48.780;9.212;2023-02-04T16:52:33;100290.16;;;10.55;64.24
19259;BME280;9763;48.780;9.212;2023-02-04T16:55:57;100286.13;;;10.46;64.56
19259;BME280;9763;48.780;9.212;2023-02-04T16:59:22;100288.06;;;10.40;65.03
19259;BME280;9763;48.780;9.212;2023-02-04T17:02:46;100289.25;;;10.31;64.31
19259;BME280;9763;48.780;9.212;2023-02-04T17:06:10;100290.38;;;10.24;64.33
19259;BME280;9763;48.780;9.212;2023-02-04T17:09:37;100289.66;;;10.19;64.71
19259;BME280;9763;48.780;9.212;2023-02-04T17:13:01;100294.16;;;10.14;64.38
19259;BME280;9763;48.780;9.212;2023-02-04T17:16:27;100295.28;;;10.05;64.25
19259;BME280;9763;48.780;9.212;2023-02-04T17:19:51;100297.41;;;9.94;64.21
19259;BME280;9763;48.780;9.212;2023-02-04T17:23:14;100303.03;;;9.81;64.28
19259;BME280;9763;48.780;9.212;2023-02-04T17:26:39;100315.75;;;9.63;64.30
19259;BME280;9763;48.780;9.212;2023-02-04T17:30:03;100316.22;;;9.48;64.57
19259;BME280;9763;48.780;9.212;2023-02-04T17:33:29;100315.75;;;9.34;64.68
19259;BME280;9763;48.780;9.212;2023-02-04T17:36:54;100316.09;;;9.23;64.66
19259;BME280;9763;48.780;9.212;2023-02-04T17:40:17;100316.31;;;9.16;65.26
19259;BME280;9763;48.780;9.212;2023-02-04T17:43:42;100320.75;;;9.12;64.62
19259;BME280;9763;48.780;9.212;2023-02-04T17:47:06;100326.97;;;9.07;64.72
19259;BME280;9763;48.780;9.212;2023-02-04T17:50:33;100331.47;;;9.01;64.84
19259;BME280;9763;48.780;9.212;2023-02-04T17:54:03;100325.56;;;8.95;65.24
19259;BME280;9763;48.780;9.212;2023-02-04T17:57:27;100325.66;;;8.92;64.60
19259;BME280;9763;48.780;9.212;2023-02-04T18:00:51;100332.66;;;8.90;65.24
19259;BME280;9763;48.780;9.212;2023-02-04T18:04:17;100334.47;;;8.86;64.58
19259;BME280;9763;48.780;9.212;2023-02-04T18:07:45;100335.53;;;8.81;64.89
19259;BME280;9763;48.780;9.212;2023-02-04T18:11:17;100332.25;;;8.73;64.70
19259;BME280;9763;48.780;9.212;2023-02-04T18:14:41;100327.25;;;8.65;65.21
19259;BME280;9763;48.780;9.212;2023-02-04T18:18:18;100331.72;;;8.60;64.90